Terminal Aerodrome Forecast
Issued by NWS

Home | Current Version | Previous Version | Text Only | Print | Product List | Glossary On
Versions: 1 2 3 4 5 6 7 8 9 10 11 12 13 14 15 16 17 18 19 20 21 22 23 24 25 26 27 28 29 30 31 32
638
FTUS45 KGJT 231901 AAA
TAFEGE
TAF AMD
KEGE 231901Z 2319/2418 20010G20KT P6SM -SHRA SCT040 BKN060
     FM232000 22012G21KT P6SM -SHRA VCTS BKN080CB
     FM232300 25010G15KT P6SM -RA VCTS BKN040CB OVC050
     FM240200 26010G15KT 2SM -RA BR BKN025 OVC040
     FM240800 26010G15KT 2SM -SN BR BKN025 OVC040
     FM241500 25008KT P6SM -SN BKN035 OVC050=

USA.gov is the U.S. government's official web portal to all federal, state and local government web resources and services.